createdAt,value
2018-05-25T00:01:25.095Z,16.67
2018-05-25T00:03:53.533Z,16.61
2018-05-25T00:06:21.923Z,16.51
2018-05-25T00:08:50.378Z,16.47
2018-05-25T00:11:18.834Z,16.50
2018-05-25T00:13:47.986Z,16.46
2018-05-25T00:16:16.373Z,16.45
2018-05-25T00:18:44.765Z,16.34
2018-05-25T00:21:13.313Z,16.28
2018-05-25T00:23:41.733Z,16.16
2018-05-25T00:26:10.132Z,16.17
2018-05-25T00:28:38.524Z,16.22
2018-05-25T00:31:06.971Z,16.22
2018-05-25T00:33:35.360Z,16.29
2018-05-25T00:36:03.743Z,16.28
2018-05-25T00:38:32.174Z,16.26
2018-05-25T00:41:01.322Z,16.26
2018-05-25T00:43:29.717Z,16.22
2018-05-25T00:45:58.111Z,16.19
2018-05-25T00:48:26.505Z,16.18
2018-05-25T00:50:54.876Z,16.24
2018-05-25T00:53:23.393Z,16.30
2018-05-25T00:55:52.719Z,16.40
2018-05-25T00:58:21.108Z,16.58
2018-05-25T01:00:49.518Z,16.68
2018-05-25T01:03:17.918Z,16.71
2018-05-25T01:05:46.310Z,16.77
2018-05-25T01:08:14.708Z,16.79
2018-05-25T01:10:43.201Z,16.76
2018-05-25T01:13:12.350Z,16.79
2018-05-25T01:15:40.748Z,16.84
2018-05-25T01:18:09.154Z,17.03
2018-05-25T01:20:37.547Z,17.03
2018-05-25T01:23:06.710Z,16.98
2018-05-25T01:25:35.119Z,16.98
2018-05-25T01:28:03.585Z,16.95
2018-05-25T01:30:31.992Z,16.89
2018-05-25T01:33:00.414Z,16.84
2018-05-25T01:35:28.813Z,16.86
2018-05-25T01:37:57.201Z,16.77
2018-05-25T01:40:25.617Z,16.88
2018-05-25T01:42:54.053Z,16.78
2018-05-25T01:45:23.593Z,16.73
2018-05-25T01:47:51.973Z,16.65
2018-05-25T01:50:20.393Z,16.52
2018-05-25T01:52:49.014Z,16.43
2018-05-25T01:55:17.479Z,16.32
2018-05-25T01:57:46.622Z,16.30
2018-05-25T02:00:15.006Z,16.27
2018-05-25T02:02:43.385Z,16.24
2018-05-25T02:05:11.768Z,16.23
2018-05-25T02:07:40.142Z,16.26
2018-05-25T02:10:08.628Z,16.17
2018-05-25T02:12:37.740Z,16.14
2018-05-25T02:15:06.269Z,16.09
2018-05-25T02:17:35.441Z,16.02
2018-05-25T02:20:03.841Z,16.03
2018-05-25T02:22:32.280Z,15.98
2018-05-25T02:25:01.394Z,16.03
2018-05-25T02:27:29.799Z,15.98
2018-05-25T02:29:58.200Z,15.92
2018-05-25T02:32:26.613Z,15.88
2018-05-25T02:34:55.074Z,15.81
2018-05-25T02:37:23.466Z,15.76
2018-05-25T02:39:52.617Z,15.70
2018-05-25T02:42:21.006Z,15.74
2018-05-25T02:44:49.384Z,15.70
2018-05-25T02:47:17.784Z,15.72
2018-05-25T02:49:46.195Z,15.64
2018-05-25T02:52:15.349Z,15.58
2018-05-25T02:54:43.757Z,15.56
2018-05-25T02:57:12.256Z,15.49
2018-05-25T02:59:40.593Z,15.41
2018-05-25T03:02:08.973Z,15.47
2018-05-25T03:04:37.353Z,15.43
2018-05-25T03:07:05.754Z,15.50
2018-05-25T03:12:01.505Z,15.52
2018-05-25T03:14:29.960Z,15.63
2018-05-25T03:16:58.346Z,15.65
2018-05-25T03:19:26.787Z,15.59
2018-05-25T03:21:55.125Z,15.55
2018-05-25T03:24:23.529Z,15.52
2018-05-25T03:26:51.930Z,15.49
2018-05-25T03:29:21.133Z,15.56
2018-05-25T03:31:50.293Z,15.74
2018-05-25T03:34:18.699Z,15.73
2018-05-25T03:36:47.200Z,15.77
2018-05-25T03:39:15.589Z,15.75
2018-05-25T03:41:44.866Z,15.66
2018-05-25T03:44:13.255Z,15.62
2018-05-25T03:46:41.665Z,15.61
2018-05-25T03:49:10.802Z,15.63
2018-05-25T03:51:39.212Z,15.69
2018-05-25T03:54:07.673Z,15.76
2018-05-25T03:56:36.070Z,15.75
2018-05-25T04:02:14.928Z,15.82
2018-05-25T04:04:43.988Z,15.87
2018-05-25T04:07:12.374Z,15.82
2018-05-25T04:09:40.748Z,15.92
2018-05-25T04:12:09.134Z,16.03
2018-05-25T04:14:37.513Z,16.02
2018-05-25T04:17:05.902Z,16.13
2018-05-25T04:19:35.235Z,16.23
2018-05-25T04:22:03.637Z,16.26
2018-05-25T04:24:32.022Z,16.31
2018-05-25T04:27:00.411Z,16.33
2018-05-25T04:29:28.834Z,16.31
2018-05-25T04:31:57.334Z,16.36
2018-05-25T04:34:25.718Z,16.51
2018-05-25T04:36:54.153Z,16.55
2018-05-25T04:39:23.312Z,16.62
2018-05-25T04:41:51.712Z,16.68
2018-05-25T04:44:20.102Z,16.76
2018-05-25T04:46:48.483Z,16.75
2018-05-25T04:49:17.088Z,16.70
2018-05-25T04:51:46.301Z,16.84
2018-05-25T04:54:14.771Z,16.78
2018-05-25T04:56:43.945Z,16.82
2018-05-25T04:59:12.352Z,16.81
2018-05-25T05:01:40.733Z,16.93
2018-05-25T05:04:09.114Z,17.09
2018-05-25T05:06:37.502Z,17.23
2018-05-25T05:09:06.721Z,17.29
2018-05-25T05:11:35.878Z,17.45
2018-05-25T05:14:04.373Z,17.53
2018-05-25T05:16:33.572Z,17.69
2018-05-25T05:19:01.957Z,17.79
2018-05-25T05:21:30.414Z,18.06
2018-05-25T05:23:58.801Z,18.09
2018-05-25T05:26:27.211Z,18.10
2018-05-25T05:28:55.597Z,18.26
2018-05-25T05:31:23.989Z,18.19
2018-05-25T05:33:52.377Z,18.23
2018-05-25T05:36:20.774Z,18.40
2018-05-25T05:38:49.929Z,18.54
2018-05-25T05:41:19.125Z,18.43
2018-05-25T05:43:47.501Z,18.66
2018-05-25T05:46:15.890Z,18.82
2018-05-25T05:48:44.280Z,18.78
2018-05-25T05:51:13.420Z,18.91
2018-05-25T05:53:42.583Z,19.00
2018-05-25T05:56:10.985Z,19.18
2018-05-25T05:58:39.374Z,19.21
2018-05-25T06:01:07.753Z,19.30
2018-05-25T06:03:36.235Z,19.39
2018-05-25T06:06:05.415Z,19.36
2018-05-25T06:08:33.794Z,19.14
2018-05-25T06:11:02.195Z,19.11
2018-05-25T06:13:30.580Z,19.33
2018-05-25T06:15:59.043Z,19.41
2018-05-25T06:18:27.507Z,19.44
2018-05-25T06:20:55.921Z,19.38
2018-05-25T06:23:24.373Z,19.56
2018-05-25T06:25:52.753Z,19.75
2018-05-25T06:28:21.167Z,19.90
2018-05-25T06:30:49.548Z,20.08
2018-05-25T06:33:17.931Z,19.94
2018-05-25T06:35:46.344Z,20.31
2018-05-25T06:38:14.725Z,20.51
2018-05-25T06:40:43.113Z,20.65
2018-05-25T06:43:11.494Z,20.90
2018-05-25T06:45:39.878Z,20.95
2018-05-25T06:48:08.253Z,20.83
2018-05-25T06:50:36.657Z,21.02
2018-05-25T06:53:05.051Z,21.17
2018-05-25T06:55:34.206Z,21.54
2018-05-25T06:58:02.684Z,21.65
2018-05-25T07:00:31.797Z,22.02
2018-05-25T07:03:00.202Z,22.31
2018-05-25T07:05:28.593Z,22.41
2018-05-25T07:07:57.003Z,22.87
2018-05-25T07:10:25.386Z,23.43
2018-05-25T07:12:53.777Z,23.60
2018-05-25T07:15:22.166Z,23.94
2018-05-25T07:17:50.597Z,24.74
2018-05-25T07:20:18.984Z,25.14
2018-05-25T07:22:47.365Z,25.69
2018-05-25T07:25:15.761Z,25.09
2018-05-25T07:27:44.166Z,26.54
2018-05-25T07:30:12.558Z,27.09
2018-05-25T07:32:40.971Z,27.15
2018-05-25T07:35:09.349Z,27.50
2018-05-25T07:37:37.757Z,27.74
2018-05-25T07:40:06.192Z,27.98
2018-05-25T07:42:34.596Z,27.56
2018-05-25T07:45:03.029Z,28.34
2018-05-25T07:47:32.182Z,28.39
2018-05-25T07:50:00.598Z,27.62
2018-05-25T07:52:28.988Z,28.18
2018-05-25T07:54:57.387Z,28.26
2018-05-25T07:57:26.548Z,28.33
2018-05-25T07:59:54.950Z,28.04
2018-05-25T08:02:23.329Z,28.44
2018-05-25T08:04:51.710Z,29.96
2018-05-25T08:07:20.192Z,29.79
2018-05-25T08:09:48.589Z,29.72
2018-05-25T08:12:16.983Z,29.69
2018-05-25T08:14:45.399Z,30.06
2018-05-25T08:17:13.799Z,29.26
2018-05-25T08:19:42.195Z,29.78
2018-05-25T08:22:10.623Z,29.92
2018-05-25T08:24:39.780Z,29.63
2018-05-25T08:27:08.157Z,29.99
2018-05-25T08:29:36.561Z,30.35
2018-05-25T08:32:04.963Z,30.55
2018-05-25T08:34:40.069Z,29.98
2018-05-25T08:37:08.494Z,30.67
2018-05-25T08:39:37.660Z,30.04
2018-05-25T08:42:06.054Z,31.27
2018-05-25T08:44:34.538Z,30.79
2018-05-25T08:47:02.925Z,30.92
2018-05-25T08:49:31.359Z,32.15
2018-05-25T08:51:59.736Z,31.47
2018-05-25T08:54:28.158Z,31.05
2018-05-25T08:56:57.324Z,31.44
2018-05-25T08:59:25.715Z,31.46
2018-05-25T09:01:54.186Z,31.16
2018-05-25T09:04:22.790Z,31.46
2018-05-25T09:06:51.414Z,31.94
2018-05-25T09:09:19.592Z,30.85
2018-05-25T09:11:47.968Z,32.92
2018-05-25T09:14:16.393Z,31.72
2018-05-25T09:16:44.796Z,32.23
2018-05-25T09:19:13.194Z,31.83
2018-05-25T09:21:41.668Z,31.12
2018-05-25T09:24:10.021Z,32.41
2018-05-25T09:26:39.216Z,31.59
2018-05-25T09:29:07.896Z,32.71
2018-05-25T09:31:36.300Z,31.92
2018-05-25T09:34:05.460Z,32.48
2018-05-25T09:36:33.865Z,31.58
2018-05-25T09:39:02.259Z,32.87
2018-05-25T09:41:30.662Z,33.11
2018-05-25T09:43:59.849Z,30.86
2018-05-25T09:46:28.226Z,30.78
2018-05-25T09:48:56.756Z,31.13
2018-05-25T09:51:25.067Z,30.41
2018-05-25T09:53:53.458Z,31.01
2018-05-25T09:56:21.897Z,31.50
2018-05-25T09:58:50.281Z,32.95
2018-05-25T10:01:18.725Z,31.26
2018-05-25T10:03:47.291Z,33.39
2018-05-25T10:06:15.705Z,32.53
2018-05-25T10:08:44.867Z,33.64
2018-05-25T10:11:13.278Z,34.15
2018-05-25T10:13:41.681Z,35.53
2018-05-25T10:16:10.852Z,35.79
2018-05-25T10:18:39.296Z,34.54
2018-05-25T10:21:07.773Z,35.42
2018-05-25T10:23:36.195Z,34.69
2018-05-25T10:26:04.579Z,36.00
2018-05-25T10:28:32.985Z,33.98
2018-05-25T10:31:01.387Z,33.39
2018-05-25T10:33:30.537Z,32.15
2018-05-25T10:35:59.695Z,33.21
2018-05-25T10:38:28.881Z,34.12
2018-05-25T10:40:58.064Z,32.96
2018-05-25T10:43:26.438Z,33.35
2018-05-25T10:45:54.869Z,33.12
2018-05-25T10:48:23.251Z,34.66
2018-05-25T10:50:51.686Z,33.52
2018-05-25T10:53:20.106Z,33.20
2018-05-25T10:55:49.363Z,32.76
2018-05-25T10:58:17.766Z,32.35
2018-05-25T11:00:46.160Z,32.66
2018-05-25T11:03:14.626Z,33.02
2018-05-25T11:05:43.003Z,33.48
2018-05-25T11:08:11.407Z,33.37
2018-05-25T11:10:40.052Z,33.08
2018-05-25T11:13:08.448Z,33.30
2018-05-25T11:15:36.881Z,33.93
2018-05-25T11:18:06.083Z,32.38
2018-05-25T11:20:35.267Z,31.29
2018-05-25T11:23:03.670Z,31.37
2018-05-25T11:25:32.848Z,32.13
2018-05-25T11:28:01.340Z,31.01
2018-05-25T11:30:29.755Z,32.11
2018-05-25T11:32:58.922Z,32.09
2018-05-25T11:35:27.353Z,32.61
2018-05-25T11:37:55.749Z,31.76
2018-05-25T11:40:24.179Z,29.33
2018-05-25T11:42:52.627Z,29.30
2018-05-25T11:45:21.879Z,30.21
2018-05-25T11:47:50.359Z,29.41
2018-05-25T11:50:18.834Z,29.99
2018-05-25T11:52:47.386Z,30.77
2018-05-25T11:55:15.829Z,31.04
2018-05-25T11:57:45.061Z,31.62
2018-05-25T12:00:13.514Z,31.93
2018-05-25T12:02:42.731Z,31.98
2018-05-25T12:05:11.861Z,31.33
2018-05-25T12:07:40.247Z,31.95
2018-05-25T12:10:08.708Z,32.45
2018-05-25T12:12:37.110Z,32.72
2018-05-25T12:15:05.517Z,31.91
2018-05-25T12:17:33.919Z,31.29
2018-05-25T12:20:02.332Z,30.75
2018-05-25T12:22:30.756Z,30.82
2018-05-25T12:24:59.177Z,32.40
2018-05-25T12:27:27.548Z,32.81
2018-05-25T12:29:55.947Z,32.50
2018-05-25T12:32:24.338Z,32.48
2018-05-25T12:34:53.518Z,32.38
2018-05-25T12:37:21.926Z,31.78
2018-05-25T12:39:51.077Z,32.41
2018-05-25T12:42:19.465Z,31.71
2018-05-25T12:45:05.413Z,30.57
2018-05-25T12:47:33.822Z,31.73
2018-05-25T12:50:02.205Z,32.09
2018-05-25T12:52:30.625Z,31.62
2018-05-25T12:54:59.032Z,31.49
2018-05-25T12:57:28.209Z,30.32
2018-05-25T12:59:56.635Z,30.67
2018-05-25T13:02:25.013Z,31.37
2018-05-25T13:04:53.401Z,31.58
2018-05-25T13:07:21.801Z,30.07
2018-05-25T13:09:50.201Z,31.58
2018-05-25T13:12:18.591Z,32.25
2018-05-25T13:14:47.010Z,32.80
2018-05-25T13:17:16.222Z,32.97
2018-05-25T13:19:44.623Z,32.48
2018-05-25T13:22:13.084Z,32.70
2018-05-25T13:24:42.274Z,32.45
2018-05-25T13:27:10.654Z,32.73
2018-05-25T13:29:39.813Z,32.88
2018-05-25T13:32:08.196Z,33.09
2018-05-25T13:34:36.619Z,32.78
2018-05-25T13:37:05.270Z,33.03
2018-05-25T13:39:33.673Z,32.88
2018-05-25T13:42:02.091Z,32.31
2018-05-25T13:44:31.273Z,33.91
2018-05-25T13:46:59.665Z,32.93
2018-05-25T13:49:28.047Z,33.45
2018-05-25T13:51:56.513Z,33.92
2018-05-25T13:54:25.679Z,32.83
2018-05-25T13:56:54.114Z,32.99
2018-05-25T13:59:22.501Z,33.49
2018-05-25T14:01:50.915Z,33.74
2018-05-25T14:04:19.303Z,32.81
2018-05-25T14:06:47.674Z,31.20
2018-05-25T14:09:16.063Z,31.73
2018-05-25T14:11:44.533Z,33.46
2018-05-25T14:14:12.992Z,32.89
2018-05-25T14:16:41.374Z,32.56
2018-05-25T14:19:09.789Z,31.61
2018-05-25T14:21:38.935Z,31.84
2018-05-25T14:24:07.331Z,33.20
2018-05-25T14:26:35.734Z,32.25
2018-05-25T14:29:04.216Z,32.60
2018-05-25T14:31:32.653Z,32.97
2018-05-25T14:34:01.033Z,33.34
2018-05-25T14:36:29.423Z,32.55
2018-05-25T14:38:57.847Z,32.79
2018-05-25T14:41:26.284Z,31.04
2018-05-25T14:43:54.655Z,31.69
2018-05-25T14:46:23.103Z,33.89
2018-05-25T14:48:51.479Z,34.23
2018-05-25T14:51:19.856Z,36.14
2018-05-25T14:53:48.251Z,35.64
2018-05-25T14:56:16.652Z,33.19
2018-05-25T14:58:45.806Z,33.81
2018-05-25T15:01:14.214Z,31.64
2018-05-25T15:03:42.605Z,31.81
2018-05-25T15:06:11.103Z,29.40
2018-05-25T15:08:40.284Z,31.68
2018-05-25T15:11:08.771Z,31.25
2018-05-25T15:13:37.191Z,32.46
2018-05-25T15:16:05.570Z,31.99
2018-05-25T15:18:34.729Z,32.08
2018-05-25T15:21:03.114Z,33.01
2018-05-25T15:23:31.581Z,34.01
2018-05-25T15:25:59.994Z,33.89
2018-05-25T15:28:28.400Z,32.63
2018-05-25T15:30:57.635Z,32.42
2018-05-25T15:33:26.827Z,34.52
2018-05-25T15:35:55.229Z,32.49
2018-05-25T15:38:23.704Z,33.21
2018-05-25T15:40:52.102Z,34.84
2018-05-25T15:43:20.476Z,35.35
2018-05-25T15:45:48.858Z,36.08
2018-05-25T15:48:17.277Z,34.04
2018-05-25T15:50:45.679Z,33.78
2018-05-25T15:53:14.085Z,33.21
2018-05-25T15:55:43.256Z,34.41
2018-05-25T15:58:11.639Z,33.70
2018-05-25T16:00:40.095Z,33.27
2018-05-25T16:03:08.491Z,32.52
2018-05-25T16:05:36.982Z,32.47
2018-05-25T16:08:05.370Z,32.10
2018-05-25T16:10:33.776Z,31.34
2018-05-25T16:13:03.031Z,31.12
2018-05-25T16:15:31.596Z,30.62
2018-05-25T16:18:00.004Z,29.92
2018-05-25T16:20:28.520Z,29.92
2018-05-25T16:22:57.033Z,28.98
2018-05-25T16:25:26.197Z,29.17
2018-05-25T16:27:54.590Z,28.88
2018-05-25T16:30:23.125Z,28.92
2018-05-25T16:32:51.522Z,28.84
2018-05-25T16:35:21.513Z,28.13
2018-05-25T16:37:50.696Z,27.91
2018-05-25T16:40:19.870Z,27.64
2018-05-25T16:42:48.325Z,27.30
2018-05-25T16:45:16.777Z,27.37
2018-05-25T16:47:45.998Z,27.08
2018-05-25T16:50:14.463Z,27.05
2018-05-25T16:52:42.807Z,27.48
2018-05-25T16:55:11.224Z,27.54
2018-05-25T16:57:40.406Z,27.29
2018-05-25T17:00:08.808Z,27.09
2018-05-25T17:02:37.977Z,26.98
2018-05-25T17:05:06.382Z,26.68
2018-05-25T17:07:34.761Z,26.47
2018-05-25T17:10:03.196Z,26.56
2018-05-25T17:12:31.748Z,26.25
2018-05-25T17:15:00.098Z,26.22
2018-05-25T17:17:28.522Z,26.12
2018-05-25T17:19:57.749Z,26.10
2018-05-25T17:22:26.133Z,26.07
2018-05-25T17:24:54.572Z,25.96
2018-05-25T17:27:22.966Z,26.01
2018-05-25T17:29:52.142Z,25.97
2018-05-25T17:32:20.563Z,25.83
2018-05-25T17:34:49.709Z,25.86
2018-05-25T17:37:18.154Z,25.79
2018-05-25T17:39:46.543Z,25.81
2018-05-25T17:42:15.058Z,25.85
2018-05-25T17:44:43.390Z,25.92
2018-05-25T17:47:12.632Z,25.85
2018-05-25T17:49:41.090Z,25.93
2018-05-25T17:52:09.489Z,25.99
2018-05-25T17:54:37.949Z,26.00
2018-05-25T17:57:07.109Z,25.89
2018-05-25T17:59:35.485Z,25.87
2018-05-25T18:02:03.926Z,25.83
2018-05-25T18:04:32.334Z,25.75
2018-05-25T18:07:00.826Z,25.69
2018-05-25T18:09:29.256Z,25.65
2018-05-25T18:11:57.728Z,25.64
2018-05-25T18:14:26.139Z,25.59
2018-05-25T18:16:55.338Z,25.59
2018-05-25T18:19:24.558Z,25.59
2018-05-25T18:21:52.940Z,25.54
2018-05-25T18:24:21.335Z,25.43
2018-05-25T18:26:49.743Z,25.30
2018-05-25T18:29:18.326Z,25.16
2018-05-25T18:31:46.722Z,25.05
2018-05-25T18:34:15.903Z,24.98
2018-05-25T18:36:44.291Z,24.96
2018-05-25T18:39:12.682Z,24.88
2018-05-25T18:41:41.862Z,24.78
2018-05-25T18:44:10.260Z,24.64
2018-05-25T18:46:38.673Z,24.63
2018-05-25T18:49:07.078Z,24.58
2018-05-25T18:51:36.253Z,24.48
2018-05-25T18:54:22.228Z,24.37
2018-05-25T18:56:50.637Z,24.25
2018-05-25T18:59:19.031Z,24.17
2018-05-25T19:01:48.211Z,24.14
2018-05-25T19:04:16.615Z,24.09
2018-05-25T19:09:16.187Z,23.98
2018-05-25T19:11:44.580Z,23.87
2018-05-25T19:14:12.988Z,23.77
2018-05-25T19:16:41.426Z,23.62
2018-05-25T19:19:09.849Z,23.47
2018-05-25T19:21:38.259Z,23.48
2018-05-25T19:24:06.655Z,23.43
2018-05-25T19:26:35.828Z,23.33
2018-05-25T19:29:04.213Z,23.28
2018-05-25T19:31:32.717Z,23.26
2018-05-25T19:34:01.104Z,23.22
2018-05-25T19:36:30.294Z,23.18
2018-05-25T19:38:58.676Z,23.04
2018-05-25T19:41:27.084Z,22.91
2018-05-25T19:43:56.254Z,22.74
2018-05-25T19:46:24.664Z,22.60
2018-05-25T19:48:53.854Z,22.50
2018-05-25T19:51:23.062Z,22.47
2018-05-25T19:53:52.226Z,22.28
2018-05-25T19:56:20.609Z,22.12
2018-05-25T19:58:49.049Z,22.05
2018-05-25T20:01:17.626Z,22.07
2018-05-25T20:03:46.830Z,22.11
2018-05-25T20:06:16.000Z,22.04
2018-05-25T20:08:44.400Z,22.01
2018-05-25T20:11:13.644Z,21.90
2018-05-25T20:13:42.038Z,21.88
2018-05-25T20:16:10.481Z,21.89
2018-05-25T20:18:38.933Z,21.93
2018-05-25T20:21:07.616Z,21.96
2018-05-25T20:23:36.027Z,21.99
2018-05-25T20:26:04.418Z,21.94
2018-05-25T20:28:33.636Z,22.01
2018-05-25T20:31:01.988Z,22.00
2018-05-25T20:33:30.455Z,21.95
2018-05-25T20:35:58.902Z,21.91
2018-05-25T20:38:27.305Z,21.78
2018-05-25T20:40:55.718Z,21.85
2018-05-25T20:43:24.154Z,21.74
2018-05-25T20:45:52.566Z,21.65
2018-05-25T20:48:21.459Z,21.65
2018-05-25T20:50:49.854Z,21.51
2018-05-25T20:53:18.326Z,21.43
2018-05-25T20:55:47.436Z,21.38
2018-05-25T20:58:15.835Z,21.30
2018-05-25T21:00:44.261Z,21.24
2018-05-25T21:03:12.649Z,21.43
2018-05-25T21:05:41.054Z,21.39
2018-05-25T21:08:09.451Z,21.33
2018-05-25T21:10:37.855Z,21.18
2018-05-25T21:13:06.265Z,21.15
2018-05-25T21:15:35.465Z,20.99
2018-05-25T21:18:04.636Z,20.88
2018-05-25T21:20:33.027Z,20.73
2018-05-25T21:23:01.435Z,20.61
2018-05-25T21:25:30.617Z,20.63
2018-05-25T21:27:59.797Z,20.61
2018-05-25T21:30:28.296Z,20.46
2018-05-25T21:32:56.683Z,20.34
2018-05-25T21:35:25.121Z,20.20
2018-05-25T21:37:53.523Z,20.12
2018-05-25T21:40:21.962Z,20.00
2018-05-25T21:42:50.342Z,19.90
2018-05-25T21:45:19.943Z,19.88
2018-05-25T21:47:49.102Z,19.86
2018-05-25T21:50:17.495Z,19.84
2018-05-25T21:52:45.922Z,19.93
2018-05-25T21:55:15.183Z,19.87
2018-05-25T21:57:43.786Z,19.84
2018-05-25T22:00:12.163Z,19.84
2018-05-25T22:02:40.595Z,19.80
2018-05-25T22:05:08.994Z,19.70
2018-05-25T22:07:37.393Z,19.65
2018-05-25T22:10:05.951Z,19.65
2018-05-25T22:12:34.339Z,19.57
2018-05-25T22:15:02.776Z,19.56
2018-05-25T22:17:31.204Z,19.50
2018-05-25T22:19:59.607Z,19.37
2018-05-25T22:22:28.073Z,19.26
2018-05-25T22:24:56.584Z,19.12
2018-05-25T22:27:24.959Z,19.02
2018-05-25T22:29:53.356Z,18.93
2018-05-25T22:32:22.571Z,18.87
2018-05-25T22:34:51.041Z,18.79
2018-05-25T22:37:19.468Z,18.75
2018-05-25T22:39:48.654Z,18.69
2018-05-25T22:42:34.557Z,18.69
2018-05-25T22:45:21.411Z,18.69
2018-05-25T22:48:07.590Z,18.60
2018-05-25T22:50:53.673Z,18.46
2018-05-25T22:53:26.815Z,18.35
2018-05-25T22:55:55.998Z,18.29
2018-05-25T22:58:24.536Z,18.30
2018-05-25T23:00:52.925Z,18.25
2018-05-25T23:03:21.318Z,18.19
2018-05-25T23:05:49.727Z,18.25
2018-05-25T23:08:18.143Z,18.22
2018-05-25T23:10:47.301Z,18.21
2018-05-25T23:13:16.480Z,18.18
2018-05-25T23:15:44.903Z,18.07
2018-05-25T23:18:13.443Z,18.09
2018-05-25T23:20:41.835Z,18.16
2018-05-25T23:23:10.276Z,18.22
2018-05-25T23:25:38.694Z,18.32
2018-05-25T23:28:07.126Z,18.53
2018-05-25T23:30:35.549Z,18.63
2018-05-25T23:33:03.926Z,18.68
2018-05-25T23:35:33.097Z,18.65
2018-05-25T23:38:01.479Z,18.63
2018-05-25T23:40:29.881Z,18.51
2018-05-25T23:42:58.271Z,18.41
2018-05-25T23:45:27.458Z,18.29
2018-05-25T23:47:55.862Z,18.19
2018-05-25T23:50:25.085Z,18.10
2018-05-25T23:52:53.477Z,18.04
2018-05-25T23:55:21.869Z,17.96
2018-05-25T23:57:50.277Z,17.95
